createdAt,value
2022-11-05T00:00:07.463Z,94890.78
2022-11-05T00:02:53.012Z,94884.47
2022-11-05T00:05:38.331Z,94891.63
2022-11-05T00:08:25.451Z,94885.63
2022-11-05T00:10:53.473Z,94893.06
2022-11-05T00:13:39.291Z,94894.66
2022-11-05T00:16:36.260Z,94897.47
2022-11-05T00:19:10.280Z,94900.09
2022-11-05T00:21:58.224Z,94905.03
2022-11-05T00:24:45.037Z,94906.47
2022-11-05T00:27:13.095Z,94906.91
2022-11-05T00:29:41.142Z,94906.00
2022-11-05T00:32:09.212Z,94906.69
2022-11-05T00:34:37.538Z,94914.41
2022-11-05T00:37:05.783Z,94918.75
2022-11-05T00:39:35.166Z,94921.22
2022-11-05T00:42:20.728Z,94926.44
2022-11-05T00:45:01.955Z,94932.41
2022-11-05T00:47:47.941Z,94937.19
2022-11-05T00:50:16.206Z,94930.22
2022-11-05T00:52:56.578Z,94935.31
2022-11-05T00:55:29.052Z,94944.50
2022-11-05T00:57:58.122Z,94948.88
2022-11-05T01:00:28.051Z,94953.75
2022-11-05T01:02:58.997Z,94953.16
2022-11-05T01:05:26.981Z,94952.72
2022-11-05T01:07:55.491Z,94959.56
2022-11-05T01:10:25.716Z,94954.06
2022-11-05T01:12:55.317Z,94959.22
2022-11-05T01:15:25.295Z,94962.09
2022-11-05T01:17:53.333Z,94962.78
2022-11-05T01:20:21.409Z,94970.00
2022-11-05T01:22:49.410Z,94962.47
2022-11-05T01:25:17.645Z,94972.03
2022-11-05T01:27:45.701Z,94971.50
2022-11-05T01:30:15.716Z,94963.97
2022-11-05T01:32:43.876Z,94968.53
2022-11-05T01:35:14.583Z,94970.69
2022-11-05T01:37:43.076Z,94963.75
2022-11-05T01:40:13.454Z,94961.78
2022-11-05T01:42:41.579Z,94966.72
2022-11-05T01:45:18.547Z,94971.50
2022-11-05T01:47:59.428Z,94969.09
2022-11-05T01:50:36.085Z,94975.50
2022-11-05T01:53:10.314Z,94978.25
2022-11-05T01:55:43.526Z,94972.28
2022-11-05T01:58:17.312Z,94976.03
2022-11-05T02:00:46.839Z,94972.16
2022-11-05T02:03:16.231Z,94979.38
2022-11-05T02:05:45.075Z,94983.38
2022-11-05T02:08:20.715Z,94986.34
2022-11-05T02:10:49.718Z,94979.63
2022-11-05T02:13:17.750Z,94970.00
2022-11-05T02:15:57.019Z,94984.88
2022-11-05T02:18:36.395Z,94985.09
2022-11-05T02:21:22.630Z,94980.97
2022-11-05T02:24:26.275Z,94979.25
2022-11-05T02:27:07.386Z,94962.22
2022-11-05T02:30:05.403Z,94976.41
2022-11-05T02:32:46.871Z,94978.91
2022-11-05T02:35:26.956Z,94972.63
2022-11-05T02:38:01.330Z,94971.16
2022-11-05T02:40:37.407Z,94974.69
2022-11-05T02:43:16.184Z,94976.63
2022-11-05T02:45:51.157Z,94980.19
2022-11-05T02:48:27.103Z,94974.81
2022-11-05T02:51:00.105Z,94982.69
2022-11-05T02:53:40.162Z,94986.59
2022-11-05T02:56:14.923Z,94987.50
2022-11-05T02:58:42.938Z,94985.00
2022-11-05T03:01:12.566Z,94992.88
2022-11-05T03:03:44.695Z,94985.22
2022-11-05T03:06:42.986Z,94989.66
2022-11-05T03:09:39.067Z,94990.25
2022-11-05T03:12:15.504Z,94995.28
2022-11-05T03:14:52.010Z,94996.16
2022-11-05T03:17:30.662Z,94995.84
2022-11-05T03:20:07.410Z,95000.66
2022-11-05T03:22:40.174Z,95007.06
2022-11-05T03:25:13.321Z,95006.47
2022-11-05T03:27:47.287Z,95007.94
2022-11-05T03:30:17.751Z,95011.94
2022-11-05T03:32:48.767Z,95009.31
2022-11-05T03:35:21.467Z,95020.53
2022-11-05T03:37:53.547Z,95021.66
2022-11-05T03:40:25.097Z,95032.28
2022-11-05T03:42:56.867Z,95027.81
2022-11-05T03:45:29.394Z,95036.28
2022-11-05T03:48:01.911Z,95039.09
2022-11-05T03:50:40.965Z,95043.81
2022-11-05T03:53:15.161Z,95050.22
2022-11-05T03:55:52.706Z,95046.56
2022-11-05T03:58:23.157Z,95050.09
2022-11-05T04:00:52.180Z,95053.44
2022-11-05T04:03:20.285Z,95051.63
2022-11-05T04:06:10.354Z,95065.44
2022-11-05T04:08:55.779Z,95063.50
2022-11-05T04:11:41.188Z,95072.06
2022-11-05T04:14:09.288Z,95067.13
2022-11-05T04:16:54.716Z,95075.59
2022-11-05T04:19:36.686Z,95073.22
2022-11-05T04:22:23.582Z,95072.06
2022-11-05T04:24:51.586Z,95078.34
2022-11-05T04:27:19.649Z,95080.75
2022-11-05T04:30:05.405Z,95081.53
2022-11-05T04:32:35.513Z,95086.78
2022-11-05T04:35:03.700Z,95080.66
2022-11-05T04:37:33.146Z,95065.31
2022-11-05T04:40:01.161Z,95087.59
2022-11-05T04:42:29.407Z,95080.78
2022-11-05T04:44:57.492Z,95082.03
2022-11-05T04:47:25.765Z,95087.03
2022-11-05T04:49:54.383Z,95083.84
2022-11-05T04:52:22.559Z,95093.16
2022-11-05T04:54:54.374Z,95091.06
2022-11-05T04:57:22.449Z,95090.06
2022-11-05T04:59:52.055Z,95095.75
2022-11-05T05:02:21.593Z,95095.78
2022-11-05T05:04:50.469Z,95097.19
2022-11-05T05:07:18.965Z,95100.66
2022-11-05T05:09:47.042Z,95095.28
2022-11-05T05:12:16.817Z,95105.66
2022-11-05T05:14:44.947Z,95113.53
2022-11-05T05:17:13.017Z,95116.06
2022-11-05T05:19:59.160Z,95117.53
2022-11-05T05:22:27.354Z,95117.84
2022-11-05T05:24:56.595Z,95123.66
2022-11-05T05:27:26.047Z,95121.03
2022-11-05T05:29:54.173Z,95126.00
2022-11-05T05:32:22.236Z,95134.91
2022-11-05T05:34:50.415Z,95128.78
2022-11-05T05:37:18.720Z,95132.69
2022-11-05T05:39:47.872Z,95135.53
2022-11-05T05:42:16.197Z,95134.53
2022-11-05T05:44:45.895Z,95145.78
2022-11-05T05:47:14.631Z,95144.88
2022-11-05T05:49:42.663Z,95143.97
2022-11-05T05:52:10.780Z,95152.50
2022-11-05T05:54:42.666Z,95146.94
2022-11-05T05:57:11.686Z,95153.53
2022-11-05T05:59:39.699Z,95153.75
2022-11-05T06:02:09.212Z,95153.56
2022-11-05T06:04:37.845Z,95150.16
2022-11-05T06:07:05.932Z,95153.56
2022-11-05T06:09:33.938Z,95154.94
2022-11-05T06:12:02.182Z,95160.88
2022-11-05T06:14:30.214Z,95152.63
2022-11-05T06:16:58.250Z,95160.00
2022-11-05T06:19:27.943Z,95159.94
2022-11-05T06:21:56.099Z,95166.47
2022-11-05T06:24:24.091Z,95171.09
2022-11-05T06:26:53.500Z,95179.38
2022-11-05T06:29:21.560Z,95188.31
2022-11-05T06:31:49.722Z,95182.00
2022-11-05T06:34:19.674Z,95182.75
2022-11-05T06:36:50.922Z,95189.94
2022-11-05T06:39:18.991Z,95189.72
2022-11-05T06:44:36.676Z,95191.56
2022-11-05T06:47:04.836Z,95203.31
2022-11-05T06:49:32.935Z,95207.16
2022-11-05T06:52:02.979Z,95209.38
2022-11-05T06:54:31.054Z,95212.81
2022-11-05T06:56:59.114Z,95212.94
2022-11-05T06:59:27.147Z,95208.38
2022-11-05T07:01:55.633Z,95216.63
2022-11-05T07:04:23.671Z,95226.78
2022-11-05T07:06:51.673Z,95223.22
2022-11-05T07:09:21.088Z,95227.94
2022-11-05T07:11:49.387Z,95222.78
2022-11-05T07:14:17.390Z,95235.81
2022-11-05T07:16:45.724Z,95242.31
2022-11-05T07:19:13.721Z,95243.06
2022-11-05T07:21:41.896Z,95246.41
2022-11-05T07:24:10.456Z,95251.69
2022-11-05T07:26:40.163Z,95254.31
2022-11-05T07:29:08.184Z,95249.41
2022-11-05T07:31:36.215Z,95252.97
2022-11-05T07:34:04.691Z,95254.47
2022-11-05T07:36:32.711Z,95256.78
2022-11-05T07:39:02.574Z,95260.97
2022-11-05T07:41:30.531Z,95260.69
2022-11-05T07:44:00.187Z,95263.09
2022-11-05T07:46:28.287Z,95264.00
2022-11-05T07:48:56.528Z,95266.22
2022-11-05T07:51:24.537Z,95263.91
2022-11-05T07:53:52.630Z,95269.47
2022-11-05T07:56:20.729Z,95273.72
2022-11-05T07:58:49.777Z,95282.53
2022-11-05T08:01:19.445Z,95285.47
2022-11-05T08:03:47.887Z,95281.75
2022-11-05T08:06:16.159Z,95288.19
2022-11-05T08:08:44.345Z,95293.09
2022-11-05T08:11:13.077Z,95294.84
2022-11-05T08:13:42.837Z,95296.56
2022-11-05T08:16:11.112Z,95295.06
2022-11-05T08:18:40.555Z,95297.59
2022-11-05T08:21:09.571Z,95303.63
2022-11-05T08:23:39.047Z,95304.22
2022-11-05T08:26:07.098Z,95301.25
2022-11-05T08:28:35.153Z,95297.59
2022-11-05T08:31:03.276Z,95300.25
2022-11-05T08:33:31.594Z,95299.06
2022-11-05T08:36:05.256Z,95297.66
2022-11-05T08:38:33.354Z,95305.34
2022-11-05T08:41:01.988Z,95299.84
2022-11-05T08:43:29.977Z,95304.41
2022-11-05T08:45:58.089Z,95306.03
2022-11-05T08:48:26.192Z,95302.16
2022-11-05T08:50:54.285Z,95307.81
2022-11-05T08:53:23.789Z,95305.97
2022-11-05T08:55:51.864Z,95319.13
2022-11-05T08:58:20.870Z,95311.13
2022-11-05T09:00:50.717Z,95311.94
2022-11-05T09:03:19.140Z,95323.38
2022-11-05T09:05:47.511Z,95320.19
2022-11-05T09:08:17.685Z,95319.94
2022-11-05T09:10:49.770Z,95331.50
2022-11-05T09:13:19.825Z,95329.66
2022-11-05T09:15:49.128Z,95324.50
2022-11-05T09:18:18.532Z,95323.16
2022-11-05T09:20:46.939Z,95326.19
2022-11-05T09:23:15.883Z,95332.34
2022-11-05T09:25:44.899Z,95336.84
2022-11-05T09:28:17.435Z,95334.94
2022-11-05T09:30:47.383Z,95342.09
2022-11-05T09:33:15.997Z,95339.66
2022-11-05T09:35:44.460Z,95331.03
2022-11-05T09:38:12.621Z,95338.16
2022-11-05T09:40:43.919Z,95336.41
2022-11-05T09:43:19.405Z,95346.59
2022-11-05T09:45:54.155Z,95346.03
2022-11-05T09:48:24.795Z,95351.75
2022-11-05T09:50:54.695Z,95350.72
2022-11-05T09:53:25.058Z,95342.50
2022-11-05T09:55:57.539Z,95354.97
2022-11-05T09:58:37.279Z,95351.22
2022-11-05T10:01:07.157Z,95360.19
2022-11-05T10:03:40.175Z,95356.19
2022-11-05T10:06:10.328Z,95350.56
2022-11-05T10:08:42.669Z,95352.97
2022-11-05T10:11:16.843Z,95361.13
2022-11-05T10:13:48.913Z,95359.53
2022-11-05T10:16:25.086Z,95358.97
2022-11-05T10:18:58.710Z,95363.63
2022-11-05T10:21:51.508Z,95370.28
2022-11-05T10:24:16.980Z,95371.22
2022-11-05T10:26:47.561Z,95373.50
2022-11-05T10:29:23.641Z,95381.13
2022-11-05T10:31:54.134Z,95379.81
2022-11-05T10:34:24.861Z,95376.97
2022-11-05T10:36:54.358Z,95376.78
2022-11-05T10:39:23.420Z,95378.88
2022-11-05T10:42:11.829Z,95387.13
2022-11-05T10:44:48.422Z,95380.59
2022-11-05T10:47:36.648Z,95388.38
2022-11-05T10:50:10.176Z,95389.75
2022-11-05T10:52:41.159Z,95389.50
2022-11-05T10:55:19.761Z,95390.06
2022-11-05T10:57:49.448Z,95398.22
2022-11-05T11:00:29.369Z,95398.22
2022-11-05T11:03:00.406Z,95395.94
2022-11-05T11:05:32.754Z,95394.69
2022-11-05T11:08:19.423Z,95384.50
2022-11-05T11:10:52.522Z,95395.38
2022-11-05T11:13:23.022Z,95392.41
2022-11-05T11:15:53.445Z,95393.75
2022-11-05T11:18:30.903Z,95387.06
2022-11-05T11:21:13.990Z,95394.19
2022-11-05T11:23:43.304Z,95398.41
2022-11-05T11:26:13.783Z,95398.53
2022-11-05T11:28:47.129Z,95401.59
2022-11-05T11:31:18.859Z,95398.09
2022-11-05T11:33:50.402Z,95410.66
2022-11-05T11:36:20.507Z,95398.34
2022-11-05T11:38:49.195Z,95392.03
2022-11-05T11:41:26.739Z,95404.22
2022-11-05T11:43:58.421Z,95402.44
2022-11-05T11:46:34.050Z,95394.56
2022-11-05T11:49:02.498Z,95407.28
2022-11-05T11:51:34.228Z,95404.44
2022-11-05T11:54:02.795Z,95408.81
2022-11-05T11:56:32.638Z,95413.41
2022-11-05T11:59:04.355Z,95415.75
2022-11-05T12:02:08.871Z,95408.28
2022-11-05T12:05:18.657Z,95412.69
2022-11-05T12:07:52.844Z,95409.59
2022-11-05T12:10:37.381Z,95414.31
2022-11-05T12:13:26.023Z,95415.19
2022-11-05T12:15:56.756Z,95409.69
2022-11-05T12:18:36.328Z,95416.78
2022-11-05T12:21:15.395Z,95412.75
2022-11-05T12:24:15.444Z,95413.41
2022-11-05T12:26:53.760Z,95413.44
2022-11-05T12:29:38.180Z,95414.13
2022-11-05T12:32:34.900Z,95421.50
2022-11-05T12:35:13.161Z,95421.28
2022-11-05T12:38:03.074Z,95421.13
2022-11-05T12:40:47.913Z,95429.34
2022-11-05T12:43:24.464Z,95431.94
2022-11-05T12:45:59.828Z,95431.59
2022-11-05T12:48:44.034Z,95425.50
2022-11-05T12:51:28.229Z,95432.75
2022-11-05T12:54:15.885Z,95436.91
2022-11-05T12:56:48.039Z,95436.28
2022-11-05T12:59:22.301Z,95443.09
2022-11-05T13:02:00.122Z,95433.03
2022-11-05T13:04:36.947Z,95436.44
2022-11-05T13:07:07.806Z,95438.00
2022-11-05T13:09:43.139Z,95439.44
2022-11-05T13:12:14.311Z,95436.84
2022-11-05T13:14:46.758Z,95432.13
2022-11-05T13:17:18.067Z,95436.50
2022-11-05T13:19:51.768Z,95434.47
2022-11-05T13:22:36.849Z,95427.59
2022-11-05T13:25:11.558Z,95433.22
2022-11-05T13:27:47.931Z,95428.75
2022-11-05T13:30:20.659Z,95434.78
2022-11-05T13:32:53.914Z,95430.78
2022-11-05T13:35:27.333Z,95430.66
2022-11-05T13:38:18.002Z,95430.56
2022-11-05T13:41:00.946Z,95433.06
2022-11-05T13:43:40.793Z,95431.34
2022-11-05T13:46:28.876Z,95429.38
2022-11-05T13:49:42.643Z,95435.00
2022-11-05T13:52:30.743Z,95440.28
2022-11-05T13:55:26.926Z,95439.50
2022-11-05T13:58:18.590Z,95438.03
2022-11-05T14:00:49.915Z,95445.47
2022-11-05T14:03:21.477Z,95441.94
2022-11-05T14:05:55.122Z,95445.00
2022-11-05T14:08:27.920Z,95440.97
2022-11-05T14:11:01.792Z,95443.81
2022-11-05T14:13:35.863Z,95438.34
2022-11-05T14:16:07.860Z,95442.81
2022-11-05T14:18:46.477Z,95445.94
2022-11-05T14:21:47.308Z,95445.56
2022-11-05T14:24:43.141Z,95445.88
2022-11-05T14:27:53.898Z,95444.28
2022-11-05T14:30:44.868Z,95453.38
2022-11-05T14:33:30.731Z,95457.03
2022-11-05T14:36:32.397Z,95457.16
2022-11-05T14:39:21.273Z,95458.53
2022-11-05T14:41:58.232Z,95463.28
2022-11-05T14:44:28.017Z,95459.06
2022-11-05T14:47:01.035Z,95474.78
2022-11-05T14:49:32.041Z,95480.38
2022-11-05T14:52:06.621Z,95480.31
2022-11-05T14:54:36.933Z,95488.22
2022-11-05T14:57:05.359Z,95490.72
2022-11-05T14:59:50.871Z,95494.13
2022-11-05T15:02:25.138Z,95492.63
2022-11-05T15:05:31.556Z,95495.13
2022-11-05T15:08:00.394Z,95492.19
2022-11-05T15:10:32.911Z,95492.19
2022-11-05T15:13:05.602Z,95493.56
2022-11-05T15:15:43.625Z,95503.19
2022-11-05T15:18:18.661Z,95500.88
2022-11-05T15:20:49.594Z,95496.50
2022-11-05T15:23:20.349Z,95500.31
2022-11-05T15:25:56.133Z,95501.38
2022-11-05T15:28:32.075Z,95493.31
2022-11-05T15:31:02.312Z,95506.31
2022-11-05T15:33:33.299Z,95499.22
2022-11-05T15:36:23.412Z,95511.44
2022-11-05T15:39:15.128Z,95507.16
2022-11-05T15:41:39.958Z,95509.53
2022-11-05T15:44:25.463Z,95510.63
2022-11-05T15:47:06.972Z,95516.81
2022-11-05T15:49:36.995Z,95513.41
2022-11-05T15:52:05.578Z,95521.81
2022-11-05T15:54:34.039Z,95520.78
2022-11-05T15:57:02.301Z,95533.13
2022-11-05T15:59:31.312Z,95531.13
2022-11-05T16:02:06.913Z,95533.31
2022-11-05T16:04:36.616Z,95533.31
2022-11-05T16:07:11.074Z,95538.09
2022-11-05T16:09:43.659Z,95534.91
2022-11-05T16:12:26.071Z,95539.91
2022-11-05T16:14:59.062Z,95548.84
2022-11-05T16:17:29.368Z,95550.09
2022-11-05T16:19:58.835Z,95550.56
2022-11-05T16:22:44.741Z,95551.28
2022-11-05T16:25:24.834Z,95553.25
2022-11-05T16:27:53.082Z,95561.03
2022-11-05T16:30:21.623Z,95553.59
2022-11-05T16:32:50.532Z,95552.78
2022-11-05T16:35:22.456Z,95556.25
2022-11-05T16:37:52.465Z,95553.41
2022-11-05T16:40:22.745Z,95561.50
2022-11-05T16:42:52.268Z,95575.28
2022-11-05T16:45:21.532Z,95573.66
2022-11-05T16:47:50.309Z,95572.63
2022-11-05T16:50:23.406Z,95570.66
2022-11-05T16:52:52.320Z,95571.84
2022-11-05T16:55:20.633Z,95573.19
2022-11-05T16:57:52.306Z,95588.53
2022-11-05T17:00:22.491Z,95582.47
2022-11-05T17:02:51.107Z,95586.25
2022-11-05T17:05:24.142Z,95581.84
2022-11-05T17:07:52.660Z,95587.16
2022-11-05T17:10:22.038Z,95590.81
2022-11-05T17:12:50.270Z,95590.28
2022-11-05T17:15:21.578Z,95588.56
2022-11-05T17:17:50.235Z,95591.16
2022-11-05T17:20:28.245Z,95595.63
2022-11-05T17:22:57.552Z,95596.94
2022-11-05T17:25:26.531Z,95597.47
2022-11-05T17:27:55.051Z,95600.75
2022-11-05T17:30:23.607Z,95604.09
2022-11-05T17:32:52.147Z,95602.31
2022-11-05T17:35:22.009Z,95613.47
2022-11-05T17:37:50.048Z,95605.97
2022-11-05T17:40:19.945Z,95614.34
2022-11-05T17:42:48.243Z,95614.38
2022-11-05T17:45:16.412Z,95618.63
2022-11-05T17:47:44.930Z,95623.56
2022-11-05T17:50:15.622Z,95628.22
2022-11-05T17:52:45.479Z,95630.97
2022-11-05T17:55:17.625Z,95638.44
2022-11-05T17:57:47.279Z,95640.44
2022-11-05T18:00:17.936Z,95640.13
2022-11-05T18:02:48.442Z,95643.22
2022-11-05T18:05:17.370Z,95644.66
2022-11-05T18:07:47.178Z,95641.94
2022-11-05T18:10:15.755Z,95641.63
2022-11-05T18:12:44.958Z,95640.13
2022-11-05T18:15:13.886Z,95640.69
2022-11-05T18:17:42.726Z,95652.88
2022-11-05T18:20:18.407Z,95646.53
2022-11-05T18:22:50.554Z,95645.94
2022-11-05T18:25:19.114Z,95649.91
2022-11-05T18:27:47.321Z,95647.97
2022-11-05T18:30:15.991Z,95637.19
2022-11-05T18:32:44.538Z,95642.38
2022-11-05T18:35:13.218Z,95647.69
2022-11-05T18:37:41.575Z,95650.38
2022-11-05T18:40:12.702Z,95645.03
2022-11-05T18:42:41.244Z,95644.34
2022-11-05T18:45:10.991Z,95636.09
2022-11-05T18:47:39.162Z,95640.91
2022-11-05T18:50:10.413Z,95624.63
2022-11-05T18:52:38.585Z,95641.84
2022-11-05T18:55:07.976Z,95628.31
2022-11-05T18:57:37.422Z,95637.44
2022-11-05T19:00:06.447Z,95641.88
2022-11-05T19:02:34.572Z,95643.91
2022-11-05T19:07:51.608Z,95646.63
2022-11-05T19:10:19.936Z,95650.28
2022-11-05T19:12:49.507Z,95649.03
2022-11-05T19:15:17.648Z,95659.72
2022-11-05T19:17:45.802Z,95667.53
2022-11-05T19:20:13.988Z,95660.91
2022-11-05T19:22:42.136Z,95671.91
2022-11-05T19:25:10.132Z,95678.03
2022-11-05T19:27:38.693Z,95677.50
2022-11-05T19:30:09.022Z,95671.13
2022-11-05T19:32:37.192Z,95672.41
2022-11-05T19:35:06.058Z,95672.38
2022-11-05T19:37:34.137Z,95673.44
2022-11-05T19:40:02.199Z,95677.84
2022-11-05T19:42:30.245Z,95672.66
2022-11-05T19:45:06.901Z,95675.28
2022-11-05T19:47:46.363Z,95674.00
2022-11-05T19:50:14.525Z,95676.81
2022-11-05T19:52:42.615Z,95666.22
2022-11-05T19:55:12.222Z,95668.63
2022-11-05T19:57:40.992Z,95665.84
2022-11-05T20:00:10.662Z,95666.97
2022-11-05T20:02:44.647Z,95663.13
2022-11-05T20:05:18.729Z,95663.25
2022-11-05T20:07:52.841Z,95671.94
2022-11-05T20:10:21.479Z,95666.91
2022-11-05T20:12:49.813Z,95676.03
2022-11-05T20:15:19.560Z,95677.66
2022-11-05T20:17:51.622Z,95678.44
2022-11-05T20:20:21.365Z,95674.25
2022-11-05T20:22:49.395Z,95681.50
2022-11-05T20:25:17.626Z,95677.72
2022-11-05T20:27:45.773Z,95677.00
2022-11-05T20:30:13.991Z,95679.06
2022-11-05T20:32:42.038Z,95675.44
2022-11-05T20:35:11.040Z,95672.44
2022-11-05T20:37:40.456Z,95678.47
2022-11-05T20:40:09.451Z,95670.19
2022-11-05T20:42:38.088Z,95671.22
2022-11-05T20:45:07.140Z,95683.72
2022-11-05T20:47:35.809Z,95676.28
2022-11-05T20:50:04.536Z,95680.09
2022-11-05T20:52:32.531Z,95680.31
2022-11-05T20:55:02.216Z,95689.00
2022-11-05T20:57:30.208Z,95682.13
2022-11-05T20:59:58.226Z,95691.22
2022-11-05T21:02:26.303Z,95694.63
2022-11-05T21:04:54.480Z,95696.84
2022-11-05T21:07:22.546Z,95699.47
2022-11-05T21:09:50.633Z,95698.47
2022-11-05T21:12:21.504Z,95706.50
2022-11-05T21:14:51.021Z,95702.09
2022-11-05T21:17:19.150Z,95700.88
2022-11-05T21:19:47.209Z,95698.88
2022-11-05T21:22:16.061Z,95689.59
2022-11-05T21:24:44.481Z,95696.81
2022-11-05T21:27:12.427Z,95694.19
2022-11-05T21:29:41.895Z,95701.03
2022-11-05T21:32:10.763Z,95705.84
2022-11-05T21:34:39.030Z,95700.59
2022-11-05T21:37:07.110Z,95707.25
2022-11-05T21:39:35.437Z,95707.47
2022-11-05T21:42:03.527Z,95710.09
2022-11-05T21:44:31.678Z,95711.09
2022-11-05T21:47:04.494Z,95712.50
2022-11-05T21:49:34.879Z,95704.44
2022-11-05T21:52:20.291Z,95710.69
2022-11-05T21:55:06.223Z,95702.41
2022-11-05T21:57:51.916Z,95705.03
2022-11-05T22:00:20.349Z,95702.59
2022-11-05T22:02:49.776Z,95700.16
2022-11-05T22:05:18.443Z,95699.38
2022-11-05T22:07:46.526Z,95696.31
2022-11-05T22:10:16.520Z,95700.34
2022-11-05T22:12:45.371Z,95693.41
2022-11-05T22:15:13.821Z,95695.81
2022-11-05T22:17:46.445Z,95695.41
2022-11-05T22:20:17.747Z,95697.03
2022-11-05T22:22:46.019Z,95699.81
2022-11-05T22:25:14.740Z,95696.41
2022-11-05T22:27:44.032Z,95696.59
2022-11-05T22:30:13.906Z,95701.81
2022-11-05T22:32:42.256Z,95689.53
2022-11-05T22:35:11.031Z,95695.16
2022-11-05T22:37:40.584Z,95695.25
2022-11-05T22:40:09.755Z,95692.34
2022-11-05T22:42:38.039Z,95692.09
2022-11-05T22:45:07.228Z,95689.81
2022-11-05T22:47:35.375Z,95688.38
2022-11-05T22:50:03.957Z,95690.88
2022-11-05T22:52:32.746Z,95686.31
2022-11-05T22:55:02.699Z,95688.94
2022-11-05T22:57:30.740Z,95688.44
2022-11-05T22:59:58.784Z,95692.56
2022-11-05T23:02:27.004Z,95686.84
2022-11-05T23:04:55.225Z,95693.38
2022-11-05T23:07:40.568Z,95692.56
2022-11-05T23:10:28.193Z,95697.66
2022-11-05T23:12:57.493Z,95694.81
2022-11-05T23:15:42.008Z,95694.63
2022-11-05T23:18:28.624Z,95704.44
2022-11-05T23:21:16.957Z,95699.84
2022-11-05T23:24:05.423Z,95702.69
2022-11-05T23:26:51.956Z,95706.41
2022-11-05T23:29:22.162Z,95694.00
2022-11-05T23:32:08.029Z,95702.13
2022-11-05T23:34:37.973Z,95692.50
2022-11-05T23:37:24.050Z,95689.44
2022-11-05T23:39:52.153Z,95691.63
2022-11-05T23:42:39.484Z,95693.38
2022-11-05T23:45:37.595Z,95691.09
2022-11-05T23:48:18.782Z,95683.72
2022-11-05T23:50:50.469Z,95679.44
2022-11-05T23:53:19.103Z,95681.75
2022-11-05T23:55:47.427Z,95682.84
2022-11-05T23:58:17.365Z,95679.97
